createdAt,value
2018-04-26T00:00:21.957Z,11.70
2018-04-26T00:02:49.974Z,11.70
2018-04-26T00:05:18.927Z,11.70
2018-04-26T00:08:02.246Z,11.60
2018-04-26T00:10:31.794Z,11.60
2018-04-26T00:13:15.835Z,11.60
2018-04-26T00:15:44.790Z,11.60
2018-04-26T00:18:12.843Z,11.60
2018-04-26T00:20:46.938Z,11.60
2018-04-26T00:23:28.699Z,11.60
2018-04-26T00:25:58.173Z,11.50
2018-04-26T00:28:27.170Z,11.50
2018-04-26T00:30:59.287Z,11.40
2018-04-26T00:33:29.267Z,11.40
2018-04-26T00:35:58.234Z,11.40
2018-04-26T00:38:26.298Z,11.30
2018-04-26T00:40:58.559Z,11.30
2018-04-26T00:43:30.482Z,11.30
2018-04-26T00:45:58.538Z,11.20
2018-04-26T00:48:28.437Z,11.20
2018-04-26T00:50:59.742Z,11.20
2018-04-26T00:53:27.778Z,11.20
2018-04-26T00:55:56.726Z,11.20
2018-04-26T00:58:24.762Z,11.20
2018-04-26T01:00:54.722Z,11.10
2018-04-26T01:03:29.438Z,11.10
2018-04-26T01:05:57.564Z,11.10
2018-04-26T01:08:31.454Z,11.00
2018-04-26T01:10:59.494Z,11.10
2018-04-26T01:13:31.887Z,11.00
2018-04-26T01:16:07.178Z,10.90
2018-04-26T01:18:37.402Z,10.90
2018-04-26T01:21:07.499Z,10.80
2018-04-26T01:23:35.566Z,10.80
2018-04-26T01:26:05.511Z,10.80
2018-04-26T01:28:33.554Z,10.80
2018-04-26T01:31:02.610Z,10.70
2018-04-26T01:33:30.694Z,10.60
2018-04-26T01:35:58.782Z,10.60
2018-04-26T01:38:28.762Z,10.50
2018-04-26T01:40:57.606Z,10.60
2018-04-26T01:43:25.639Z,10.60
2018-04-26T01:45:53.718Z,10.60
2018-04-26T01:48:26.623Z,10.60
2018-04-26T01:50:58.946Z,10.60
2018-04-26T01:53:28.919Z,10.60
2018-04-26T01:55:58.890Z,10.60
2018-04-26T01:58:31.241Z,10.60
2018-04-26T02:01:01.999Z,10.60
2018-04-26T02:03:33.698Z,10.60
2018-04-26T02:06:02.618Z,10.60
2018-04-26T02:08:31.599Z,10.60
2018-04-26T02:10:59.643Z,10.60
2018-04-26T02:13:27.687Z,10.60
2018-04-26T02:15:59.611Z,10.60
2018-04-26T02:18:28.715Z,10.60
2018-04-26T02:20:59.459Z,10.50
2018-04-26T02:23:29.509Z,10.50
2018-04-26T02:25:59.478Z,10.50
2018-04-26T02:28:28.975Z,10.50
2018-04-26T02:30:57.974Z,10.50
2018-04-26T02:33:26.023Z,10.50
2018-04-26T02:35:54.278Z,10.50
2018-04-26T02:38:22.298Z,10.40
2018-04-26T02:41:03.361Z,10.50
2018-04-26T02:43:31.390Z,10.40
2018-04-26T02:46:09.474Z,10.40
2018-04-26T02:48:41.405Z,10.40
2018-04-26T02:51:11.478Z,10.40
2018-04-26T02:53:39.531Z,10.40
2018-04-26T02:56:08.450Z,10.40
2018-04-26T02:58:38.702Z,10.40
2018-04-26T03:01:07.678Z,10.40
2018-04-26T03:03:39.762Z,10.40
2018-04-26T03:06:08.669Z,10.30
2018-04-26T03:08:41.870Z,10.10
2018-04-26T03:11:09.898Z,10.00
2018-04-26T03:13:39.937Z,10.00
2018-04-26T03:16:08.918Z,9.90
2018-04-26T03:18:36.972Z,9.90
2018-04-26T03:21:05.941Z,9.90
2018-04-26T03:23:38.525Z,9.80
2018-04-26T03:26:06.761Z,9.80
2018-04-26T03:28:54.606Z,9.70
2018-04-26T03:31:22.693Z,9.70
2018-04-26T03:33:51.697Z,9.70
2018-04-26T03:36:19.701Z,9.70
2018-04-26T03:38:49.674Z,9.70
2018-04-26T03:41:24.137Z,9.70
2018-04-26T03:43:53.137Z,9.60
2018-04-26T03:46:21.917Z,9.60
2018-04-26T03:48:58.632Z,9.60
2018-04-26T03:51:27.381Z,9.60
2018-04-26T03:53:59.369Z,9.60
2018-04-26T03:56:31.262Z,9.60
2018-04-26T03:59:00.284Z,9.70
2018-04-26T04:01:40.148Z,9.60
2018-04-26T04:04:24.945Z,9.50
2018-04-26T04:06:59.294Z,9.50
2018-04-26T04:09:27.329Z,9.40
2018-04-26T04:11:56.358Z,9.40
2018-04-26T04:14:24.374Z,9.40
2018-04-26T04:16:52.406Z,9.40
2018-04-26T04:19:21.313Z,9.30
2018-04-26T04:21:51.833Z,9.40
2018-04-26T04:24:20.905Z,9.30
2018-04-26T04:26:49.825Z,9.40
2018-04-26T04:29:21.653Z,9.30
2018-04-26T04:31:49.689Z,9.30
2018-04-26T04:34:17.725Z,9.40
2018-04-26T04:36:48.073Z,9.40
2018-04-26T04:39:25.169Z,9.40
2018-04-26T04:41:54.213Z,9.40
2018-04-26T04:44:24.049Z,9.30
2018-04-26T04:47:00.157Z,9.30
2018-04-26T04:49:32.377Z,9.20
2018-04-26T04:52:10.913Z,9.10
2018-04-26T04:54:43.930Z,9.10
2018-04-26T04:57:11.938Z,9.00
2018-04-26T04:59:48.285Z,8.90
2018-04-26T05:02:17.164Z,8.90
2018-04-26T05:04:50.146Z,9.00
2018-04-26T05:07:19.227Z,8.90
2018-04-26T05:09:49.149Z,8.90
2018-04-26T05:12:20.249Z,8.90
2018-04-26T05:14:49.153Z,8.90
2018-04-26T05:17:21.006Z,8.90
2018-04-26T05:19:49.053Z,8.90
2018-04-26T05:22:17.037Z,9.00
2018-04-26T05:24:45.057Z,9.00
2018-04-26T05:27:13.077Z,9.00
2018-04-26T05:29:41.082Z,9.10
2018-04-26T05:32:19.869Z,9.10
2018-04-26T05:34:49.810Z,9.20
2018-04-26T05:37:21.577Z,9.30
2018-04-26T05:39:49.589Z,9.40
2018-04-26T05:42:18.383Z,9.60
2018-04-26T05:44:48.049Z,9.70
2018-04-26T05:47:20.999Z,9.70
2018-04-26T05:49:50.953Z,9.80
2018-04-26T05:52:25.545Z,9.80
2018-04-26T05:54:53.573Z,9.80
2018-04-26T05:57:23.366Z,10.00
2018-04-26T05:59:56.237Z,10.00
2018-04-26T06:02:24.262Z,10.00
2018-04-26T06:04:53.242Z,9.90
2018-04-26T06:07:25.897Z,9.90
2018-04-26T06:09:55.926Z,9.90
2018-04-26T06:12:26.605Z,10.00
2018-04-26T06:15:00.609Z,10.00
2018-04-26T06:17:28.633Z,9.90
2018-04-26T06:19:58.425Z,10.00
2018-04-26T06:22:28.442Z,9.90
2018-04-26T06:24:56.464Z,9.90
2018-04-26T06:27:25.730Z,10.10
2018-04-26T06:29:57.626Z,10.00
2018-04-26T06:32:29.112Z,10.10
2018-04-26T06:34:57.138Z,10.30
2018-04-26T06:37:26.058Z,10.40
2018-04-26T06:39:55.986Z,10.70
2018-04-26T06:42:24.015Z,10.90
2018-04-26T06:44:52.021Z,11.20
2018-04-26T06:47:23.453Z,11.40
2018-04-26T06:49:55.030Z,11.10
2018-04-26T06:52:23.054Z,11.10
2018-04-26T06:54:51.090Z,11.30
2018-04-26T06:57:19.099Z,11.80
2018-04-26T06:59:53.966Z,12.10
2018-04-26T07:02:21.990Z,11.90
2018-04-26T07:04:54.239Z,11.40
2018-04-26T07:07:27.918Z,11.50
2018-04-26T07:09:57.946Z,11.70
2018-04-26T07:12:25.978Z,11.70
2018-04-26T07:14:53.997Z,11.70
2018-04-26T07:17:22.001Z,11.80
2018-04-26T07:19:51.939Z,12.20
2018-04-26T07:22:25.249Z,12.20
2018-04-26T07:24:53.261Z,12.20
2018-04-26T07:27:22.188Z,12.30
2018-04-26T07:29:55.608Z,11.70
2018-04-26T07:32:23.621Z,11.30
2018-04-26T07:34:51.636Z,11.00
2018-04-26T07:37:19.633Z,10.80
2018-04-26T07:39:50.845Z,11.10
2018-04-26T07:42:18.855Z,12.30
2018-04-26T07:44:50.980Z,13.60
2018-04-26T07:47:18.981Z,14.50
2018-04-26T07:49:55.290Z,13.90
2018-04-26T07:52:27.377Z,14.30
2018-04-26T07:54:56.281Z,14.30
2018-04-26T07:57:24.285Z,14.10
2018-04-26T07:59:53.185Z,14.20
2018-04-26T08:02:22.128Z,14.00
2018-04-26T08:04:53.768Z,14.00
2018-04-26T08:07:21.826Z,13.30
2018-04-26T08:09:51.440Z,12.40
2018-04-26T08:12:19.456Z,12.40
2018-04-26T08:15:04.976Z,13.50
2018-04-26T08:17:59.141Z,13.50
2018-04-26T08:20:27.144Z,14.40
2018-04-26T08:22:58.885Z,15.40
2018-04-26T08:25:26.896Z,15.40
2018-04-26T08:27:56.797Z,15.10
2018-04-26T08:30:24.874Z,15.10
2018-04-26T08:32:52.808Z,14.50
2018-04-26T08:35:25.516Z,15.40
2018-04-26T08:37:59.164Z,16.10
2018-04-26T08:40:29.065Z,17.80
2018-04-26T08:43:00.568Z,17.70
2018-04-26T08:45:32.263Z,17.10
2018-04-26T08:48:05.008Z,17.00
2018-04-26T08:50:38.977Z,16.00
2018-04-26T08:53:19.148Z,16.10
2018-04-26T08:55:47.173Z,16.20
2018-04-26T08:58:16.072Z,16.20
2018-04-26T09:00:55.972Z,16.50
2018-04-26T09:03:26.896Z,17.40
2018-04-26T09:05:56.832Z,17.50
2018-04-26T09:08:25.727Z,17.20
2018-04-26T09:10:54.619Z,17.80
2018-04-26T09:13:41.796Z,18.60
2018-04-26T09:16:13.155Z,18.70
2018-04-26T09:18:53.684Z,19.40
2018-04-26T09:21:22.592Z,19.30
2018-04-26T09:23:58.664Z,18.40
2018-04-26T09:26:27.567Z,16.50
2018-04-26T09:28:56.467Z,16.20
2018-04-26T09:31:26.363Z,15.00
2018-04-26T09:33:56.265Z,14.20
2018-04-26T09:36:24.285Z,13.80
2018-04-26T09:39:04.080Z,14.80
2018-04-26T09:41:50.500Z,16.70
2018-04-26T09:44:20.425Z,18.60
2018-04-26T09:46:48.435Z,19.00
2018-04-26T09:49:21.160Z,18.20
2018-04-26T09:51:56.331Z,16.30
2018-04-26T09:54:25.220Z,15.60
2018-04-26T09:56:53.240Z,14.70
2018-04-26T09:59:23.184Z,14.30
2018-04-26T10:01:58.813Z,13.70
2018-04-26T10:04:26.828Z,13.20
2018-04-26T10:06:59.751Z,12.70
2018-04-26T10:12:25.474Z,13.60
2018-04-26T10:14:54.256Z,18.10
2018-04-26T10:17:22.274Z,18.00
2018-04-26T10:19:50.287Z,18.50
2018-04-26T10:22:19.058Z,16.70
2018-04-26T10:24:52.394Z,16.70
2018-04-26T10:27:21.322Z,15.60
2018-04-26T10:29:49.338Z,14.50
2018-04-26T10:32:18.281Z,14.80
2018-04-26T10:34:47.182Z,15.30
2018-04-26T10:37:19.434Z,15.90
2018-04-26T10:39:51.202Z,16.30
2018-04-26T10:42:23.877Z,18.00
2018-04-26T10:48:05.314Z,17.10
2018-04-26T10:50:41.305Z,16.80
2018-04-26T10:53:22.670Z,17.60
2018-04-26T10:55:51.621Z,17.90
2018-04-26T10:58:19.625Z,16.70
2018-04-26T11:00:54.217Z,14.00
2018-04-26T11:03:22.234Z,14.00
2018-04-26T11:05:51.173Z,13.60
2018-04-26T11:08:20.158Z,14.20
2018-04-26T11:10:49.150Z,15.30
2018-04-26T11:13:19.070Z,17.30
2018-04-26T11:15:47.094Z,18.50
2018-04-26T11:18:16.032Z,17.40
2018-04-26T11:20:45.020Z,16.90
2018-04-26T11:23:13.047Z,16.10
2018-04-26T11:28:43.747Z,15.00
2018-04-26T11:31:32.026Z,14.50
2018-04-26T11:34:23.559Z,13.70
2018-04-26T11:37:08.718Z,13.50
2018-04-26T11:39:51.434Z,15.30
2018-04-26T11:42:19.451Z,16.80
2018-04-26T11:44:52.767Z,16.10
2018-04-26T11:47:22.771Z,15.20
2018-04-26T11:49:57.895Z,14.60
2018-04-26T11:52:29.081Z,15.50
2018-04-26T11:54:57.087Z,16.00
2018-04-26T11:57:25.167Z,17.10
2018-04-26T11:59:53.200Z,18.40
2018-04-26T12:02:24.267Z,17.60
2018-04-26T12:04:54.227Z,18.80
2018-04-26T12:07:22.259Z,19.60
2018-04-26T12:09:51.216Z,19.50
2018-04-26T12:12:20.168Z,18.10
2018-04-26T12:14:50.463Z,18.70
2018-04-26T12:17:20.436Z,19.70
2018-04-26T12:19:48.480Z,20.20
2018-04-26T12:22:16.496Z,18.60
2018-04-26T12:24:44.503Z,17.10
2018-04-26T12:27:13.524Z,16.50
2018-04-26T12:29:43.533Z,17.10
2018-04-26T12:32:12.532Z,18.10
2018-04-26T12:34:40.552Z,19.20
2018-04-26T12:37:10.496Z,19.80
2018-04-26T12:39:43.592Z,19.30
2018-04-26T12:42:15.396Z,20.90
2018-04-26T12:44:48.292Z,20.30
2018-04-26T12:47:16.316Z,21.10
2018-04-26T12:49:47.680Z,19.80
2018-04-26T12:52:15.687Z,18.30
2018-04-26T12:54:43.699Z,16.60
2018-04-26T12:57:11.779Z,16.90
2018-04-26T12:59:39.743Z,17.90
2018-04-26T13:02:09.763Z,18.40
2018-04-26T13:04:38.746Z,17.70
2018-04-26T13:07:07.737Z,17.70
2018-04-26T13:09:35.758Z,17.00
2018-04-26T13:12:03.779Z,15.80
2018-04-26T13:14:38.070Z,14.50
2018-04-26T13:17:08.102Z,14.30
2018-04-26T13:19:40.590Z,15.60
2018-04-26T13:22:08.622Z,16.80
2018-04-26T13:24:38.570Z,18.60
2018-04-26T13:27:09.632Z,19.70
2018-04-26T13:29:38.614Z,20.10
2018-04-26T13:32:07.597Z,20.10
2018-04-26T13:34:35.617Z,20.80
2018-04-26T13:37:06.905Z,20.60
2018-04-26T13:39:34.917Z,20.80
2018-04-26T13:42:07.141Z,20.20
2018-04-26T13:44:37.165Z,20.20
2018-04-26T13:47:06.153Z,19.60
2018-04-26T13:49:38.014Z,19.80
2018-04-26T13:52:06.058Z,19.20
2018-04-26T13:54:41.805Z,20.70
2018-04-26T13:57:09.809Z,20.70
2018-04-26T13:59:44.918Z,20.90
2018-04-26T14:02:16.801Z,20.70
2018-04-26T14:04:46.853Z,21.10
2018-04-26T14:07:14.885Z,20.00
2018-04-26T14:09:46.541Z,19.70
2018-04-26T14:12:15.539Z,20.60
2018-04-26T14:14:43.553Z,20.50
2018-04-26T14:17:12.483Z,20.50
2018-04-26T14:19:50.777Z,20.20
2018-04-26T14:22:18.794Z,18.60
2018-04-26T14:24:48.790Z,18.40
2018-04-26T14:27:21.786Z,18.70
2018-04-26T14:29:53.327Z,18.90
2018-04-26T14:32:22.314Z,19.30
2018-04-26T14:34:53.675Z,19.00
2018-04-26T14:37:22.724Z,19.50
2018-04-26T14:39:50.666Z,19.20
2018-04-26T14:42:33.993Z,19.40
2018-04-26T14:45:12.849Z,19.40
2018-04-26T14:48:03.018Z,20.70
2018-04-26T14:50:38.310Z,21.20
2018-04-26T14:53:10.066Z,21.10
2018-04-26T14:55:52.097Z,20.70
2018-04-26T14:58:22.814Z,19.70
2018-04-26T15:01:04.213Z,19.70
2018-04-26T15:03:44.002Z,19.70
2018-04-26T15:06:13.938Z,19.60
2018-04-26T15:09:01.217Z,19.70
2018-04-26T15:11:30.146Z,19.70
2018-04-26T15:13:58.158Z,19.00
2018-04-26T15:16:46.321Z,19.10
2018-04-26T15:19:21.678Z,19.00
2018-04-26T15:21:52.837Z,19.50
2018-04-26T15:24:22.766Z,20.20
2018-04-26T15:26:54.117Z,19.40
2018-04-26T15:29:27.922Z,18.80
2018-04-26T15:32:21.130Z,18.90
2018-04-26T15:34:52.814Z,18.60
2018-04-26T15:37:22.746Z,16.80
2018-04-26T15:40:00.720Z,16.80
2018-04-26T15:42:32.626Z,16.10
2018-04-26T15:45:00.630Z,16.00
2018-04-26T15:47:28.650Z,16.80
2018-04-26T15:49:56.742Z,16.80
2018-04-26T15:52:47.760Z,17.60
2018-04-26T15:55:32.049Z,18.00
2018-04-26T15:58:14.733Z,17.70
2018-04-26T16:01:00.129Z,17.80
2018-04-26T16:03:45.585Z,17.40
2018-04-26T16:06:32.229Z,16.70
2018-04-26T16:09:13.255Z,16.60
2018-04-26T16:11:53.049Z,16.10
2018-04-26T16:14:33.817Z,15.60
2018-04-26T16:17:22.869Z,15.00
2018-04-26T16:20:11.957Z,14.30
2018-04-26T16:22:59.341Z,14.00
2018-04-26T16:25:39.269Z,13.90
2018-04-26T16:28:29.413Z,13.80
2018-04-26T16:31:17.998Z,13.80
2018-04-26T16:34:05.609Z,13.90
2018-04-26T16:36:47.865Z,13.80
2018-04-26T16:39:21.514Z,13.70
2018-04-26T16:41:52.450Z,13.60
2018-04-26T16:44:24.074Z,13.50
2018-04-26T16:46:56.613Z,13.40
2018-04-26T16:49:24.625Z,13.40
2018-04-26T16:51:54.566Z,13.30
2018-04-26T16:54:31.094Z,13.20
2018-04-26T16:57:00.026Z,13.10
2018-04-26T17:02:22.698Z,13.10
2018-04-26T17:05:10.581Z,13.10
2018-04-26T17:07:58.598Z,13.00
2018-04-26T17:10:36.658Z,13.00
2018-04-26T17:13:19.966Z,12.90
2018-04-26T17:15:58.578Z,12.90
2018-04-26T17:18:51.697Z,12.80
2018-04-26T17:21:19.725Z,12.80
2018-04-26T17:23:49.662Z,12.70
2018-04-26T17:26:22.769Z,12.70
2018-04-26T17:28:59.086Z,12.80
2018-04-26T17:31:28.099Z,12.80
2018-04-26T17:33:56.117Z,12.70
2018-04-26T17:36:24.125Z,12.60
2018-04-26T17:38:52.165Z,12.40
2018-04-26T17:41:22.061Z,12.20
2018-04-26T17:43:51.026Z,12.10
2018-04-26T17:46:19.056Z,11.90
2018-04-26T17:49:07.732Z,11.80
2018-04-26T17:51:40.728Z,11.70
2018-04-26T17:54:32.699Z,11.60
2018-04-26T17:57:02.650Z,11.50
2018-04-26T17:59:32.616Z,11.40
2018-04-26T18:02:14.484Z,11.20
2018-04-26T18:04:55.712Z,11.10
2018-04-26T18:07:25.696Z,11.20
2018-04-26T18:10:12.768Z,11.00
2018-04-26T18:13:00.863Z,10.90
2018-04-26T18:15:55.396Z,10.60
2018-04-26T18:18:24.891Z,10.60
2018-04-26T18:20:56.715Z,10.40
2018-04-26T18:23:32.128Z,10.20
2018-04-26T18:26:12.684Z,10.10
2018-04-26T18:28:45.531Z,9.90
2018-04-26T18:31:14.523Z,9.80
2018-04-26T18:33:46.255Z,9.70
2018-04-26T18:36:18.860Z,9.60
2018-04-26T18:38:50.496Z,9.40
2018-04-26T18:41:18.543Z,9.10
2018-04-26T18:43:50.728Z,8.90
2018-04-26T18:46:23.411Z,8.60
2018-04-26T18:48:51.444Z,8.60
2018-04-26T18:51:20.579Z,8.50
2018-04-26T18:53:49.475Z,8.50
2018-04-26T18:56:21.173Z,8.40
2018-04-26T18:58:51.112Z,8.20
2018-04-26T19:01:19.172Z,8.00
2018-04-26T19:03:51.648Z,7.70
2018-04-26T19:14:03.100Z,7.10
2018-04-26T19:16:31.520Z,7.00
2018-04-26T19:19:05.008Z,6.80
2018-04-26T19:21:36.792Z,6.70
2018-04-26T19:24:08.276Z,6.70
2018-04-26T19:26:42.682Z,6.70
2018-04-26T19:31:51.482Z,6.40
2018-04-26T19:34:19.492Z,6.40
2018-04-26T20:17:47.741Z,5.00
2018-04-26T20:41:05.152Z,4.60
2018-04-26T20:43:41.634Z,4.60
2018-04-26T20:46:31.689Z,4.60
2018-04-26T20:49:05.953Z,4.50
2018-04-26T20:51:44.461Z,4.50
2018-04-26T20:54:12.700Z,4.30
2018-04-26T21:14:50.420Z,3.90
2018-04-26T21:17:22.976Z,4.00
2018-04-26T21:25:00.713Z,4.00
2018-04-26T21:27:28.860Z,4.30
2018-04-26T21:29:58.209Z,4.30
2018-04-26T21:32:26.456Z,4.30
2018-04-26T21:34:56.600Z,4.20
2018-04-26T21:37:24.780Z,4.20
2018-04-26T21:39:55.784Z,4.10
2018-04-26T21:42:28.304Z,4.00
2018-04-26T21:47:35.780Z,3.50
2018-04-26T21:50:12.108Z,3.30
2018-04-26T21:58:02.276Z,2.90
2018-04-26T22:00:36.628Z,3.00
2018-04-26T22:03:30.552Z,3.00
2018-04-26T22:26:32.520Z,3.00
2018-04-26T22:39:26.952Z,3.10
2018-04-26T22:49:36.520Z,3.10
2018-04-26T22:52:08.119Z,3.10
2018-04-26T22:57:11.459Z,3.50
2018-04-26T22:59:39.860Z,3.70
2018-04-26T23:02:11.523Z,3.90
2018-04-26T23:04:39.791Z,4.00
2018-04-26T23:07:08.203Z,4.00
2018-04-26T23:09:37.007Z,4.00
2018-04-26T23:12:08.287Z,4.10
2018-04-26T23:14:38.427Z,4.10
2018-04-26T23:42:55.751Z,3.40
